createdAt,value
2018-01-30T00:00:14.687Z,1.52
2018-01-30T00:02:42.198Z,1.55
2018-01-30T00:05:09.726Z,1.98
2018-01-30T00:07:39.472Z,3.00
2018-01-30T00:10:07.211Z,3.33
2018-01-30T00:12:46.979Z,1.40
2018-01-30T00:18:12.102Z,1.00
2018-01-30T00:23:43.915Z,1.08
2018-01-30T00:26:22.394Z,1.85
2018-01-30T00:28:53.673Z,1.62
2018-01-30T00:31:21.225Z,0.88
2018-01-30T00:33:53.773Z,1.17
2018-01-30T00:36:23.486Z,1.58
2018-01-30T00:39:02.289Z,1.20
2018-01-30T00:41:29.970Z,1.00
2018-01-30T00:44:04.240Z,0.90
2018-01-30T00:46:32.973Z,2.08
2018-01-30T00:49:12.205Z,1.50
2018-01-30T00:51:41.506Z,1.37
2018-01-30T00:54:17.154Z,1.20
2018-01-30T00:56:47.547Z,1.60
2018-01-30T00:59:29.169Z,1.65
2018-01-30T01:01:57.771Z,1.20
2018-01-30T01:04:26.028Z,1.00
2018-01-30T01:06:54.405Z,1.00
2018-01-30T01:09:21.969Z,0.90
2018-01-30T01:12:05.042Z,0.90
2018-01-30T01:14:34.186Z,1.00
2018-01-30T01:17:03.761Z,1.15
2018-01-30T01:19:49.527Z,1.10
2018-01-30T01:22:23.764Z,1.10
2018-01-30T01:24:55.650Z,1.00
2018-01-30T01:27:38.981Z,3.05
2018-01-30T01:30:22.626Z,0.90
2018-01-30T01:32:50.132Z,1.10
2018-01-30T01:35:19.069Z,4.60
2018-01-30T01:38:02.602Z,1.27
2018-01-30T01:40:35.481Z,0.90
2018-01-30T01:43:03.047Z,3.22
2018-01-30T01:45:30.558Z,1.00
2018-01-30T01:47:58.282Z,1.10
2018-01-30T01:50:25.784Z,1.37
2018-01-30T01:52:53.284Z,1.10
2018-01-30T01:55:21.666Z,0.90
2018-01-30T01:57:49.219Z,1.77
2018-01-30T02:00:16.751Z,1.45
2018-01-30T02:02:44.249Z,2.12
2018-01-30T02:05:11.797Z,1.75
2018-01-30T02:07:39.332Z,0.98
2018-01-30T02:10:06.838Z,1.00
2018-01-30T02:12:34.366Z,1.00
2018-01-30T02:15:01.895Z,0.80
2018-01-30T02:17:30.204Z,2.30
2018-01-30T02:19:57.862Z,1.00
2018-01-30T02:22:25.369Z,0.80
2018-01-30T02:24:53.189Z,1.00
2018-01-30T02:27:20.751Z,1.00
2018-01-30T02:29:48.257Z,1.00
2018-01-30T02:32:15.788Z,0.90
2018-01-30T02:34:43.300Z,1.55
2018-01-30T02:37:10.833Z,1.20
2018-01-30T02:39:38.337Z,0.80
2018-01-30T02:42:05.840Z,1.05
2018-01-30T02:44:33.377Z,1.70
2018-01-30T02:47:00.892Z,1.33
2018-01-30T02:49:28.439Z,1.98
2018-01-30T02:51:55.944Z,2.30
2018-01-30T02:54:23.445Z,1.12
2018-01-30T02:56:50.973Z,1.30
2018-01-30T02:59:18.507Z,2.10
2018-01-30T03:01:46.373Z,1.50
2018-01-30T03:04:13.873Z,0.98
2018-01-30T03:06:41.376Z,1.73
2018-01-30T03:09:08.909Z,5.30
2018-01-30T03:11:36.412Z,1.20
2018-01-30T03:14:04.175Z,1.33
2018-01-30T03:16:31.729Z,2.22
2018-01-30T03:18:59.228Z,1.50
2018-01-30T03:21:26.765Z,3.40
2018-01-30T03:23:54.302Z,1.62
2018-01-30T03:26:22.272Z,3.22
2018-01-30T03:28:49.776Z,2.95
2018-01-30T03:31:17.287Z,1.23
2018-01-30T03:33:44.848Z,1.20
2018-01-30T03:36:12.352Z,2.53
2018-01-30T03:38:40.374Z,1.30
2018-01-30T03:41:07.887Z,1.45
2018-01-30T03:43:35.391Z,1.65
2018-01-30T03:46:02.939Z,1.30
2018-01-30T03:48:30.529Z,2.87
2018-01-30T03:50:58.250Z,1.30
2018-01-30T03:53:25.755Z,1.52
2018-01-30T03:55:53.290Z,1.80
2018-01-30T03:58:20.846Z,1.70
2018-01-30T04:00:48.353Z,2.05
2018-01-30T04:03:16.252Z,1.30
2018-01-30T04:05:43.748Z,3.85
2018-01-30T04:08:11.292Z,2.00
2018-01-30T04:10:38.850Z,1.50
2018-01-30T04:13:07.330Z,1.48
2018-01-30T04:15:35.172Z,2.25
2018-01-30T04:18:03.078Z,1.98
2018-01-30T04:20:30.582Z,1.45
2018-01-30T04:22:58.104Z,2.37
2018-01-30T04:25:25.636Z,1.48
2018-01-30T04:27:53.401Z,1.73
2018-01-30T04:30:20.900Z,1.62
2018-01-30T04:32:48.432Z,1.55
2018-01-30T04:35:15.952Z,1.50
2018-01-30T04:37:43.449Z,3.65
2018-01-30T04:40:11.196Z,2.15
2018-01-30T04:42:38.756Z,3.17
2018-01-30T04:45:06.272Z,2.10
2018-01-30T04:47:33.812Z,5.28
2018-01-30T04:50:01.330Z,5.10
2018-01-30T04:52:28.890Z,2.55
2018-01-30T04:54:56.401Z,2.58
2018-01-30T04:57:23.921Z,1.85
2018-01-30T04:59:51.477Z,1.77
2018-01-30T05:02:19.046Z,1.40
2018-01-30T05:04:46.577Z,1.75
2018-01-30T05:07:14.106Z,1.80
2018-01-30T05:09:41.906Z,3.00
2018-01-30T05:12:09.466Z,3.00
2018-01-30T05:14:36.977Z,2.10
2018-01-30T05:17:04.520Z,3.05
2018-01-30T05:19:32.023Z,2.42
2018-01-30T05:21:59.676Z,1.92
2018-01-30T05:24:27.229Z,3.22
2018-01-30T05:26:54.737Z,1.70
2018-01-30T05:29:22.257Z,1.10
2018-01-30T05:31:49.762Z,3.55
2018-01-30T05:34:17.499Z,3.55
2018-01-30T05:36:45.122Z,1.30
2018-01-30T05:39:12.634Z,1.30
2018-01-30T05:41:40.176Z,3.30
2018-01-30T05:44:23.128Z,3.67
2018-01-30T05:46:50.665Z,7.12
2018-01-30T05:49:18.171Z,1.77
2018-01-30T05:51:46.612Z,5.47
2018-01-30T05:54:23.573Z,3.80
2018-01-30T05:56:51.113Z,2.60
2018-01-30T05:59:29.692Z,2.28
2018-01-30T06:01:57.221Z,1.70
2018-01-30T06:04:28.587Z,3.25
2018-01-30T06:06:56.113Z,1.67
2018-01-30T06:09:24.900Z,2.15
2018-01-30T06:12:03.741Z,3.85
2018-01-30T06:14:37.149Z,2.20
2018-01-30T06:17:06.438Z,3.28
2018-01-30T06:19:37.870Z,7.57
2018-01-30T06:22:12.602Z,7.40
2018-01-30T06:24:43.841Z,4.78
2018-01-30T06:27:11.344Z,5.75
2018-01-30T06:29:49.067Z,3.83
2018-01-30T06:32:28.512Z,7.95
2018-01-30T06:34:56.491Z,28.73
2018-01-30T06:37:27.894Z,12.02
2018-01-30T06:40:01.036Z,11.77
2018-01-30T06:42:28.540Z,15.85
2018-01-30T06:44:56.061Z,13.40
2018-01-30T06:47:23.597Z,12.23
2018-01-30T06:49:51.102Z,15.10
2018-01-30T06:52:18.637Z,14.60
2018-01-30T06:54:46.145Z,13.40
2018-01-30T06:57:13.655Z,14.18
2018-01-30T06:59:41.312Z,12.95
2018-01-30T07:02:08.821Z,16.02
2018-01-30T07:04:36.535Z,19.27
2018-01-30T07:07:04.041Z,13.45
2018-01-30T07:09:31.559Z,16.42
2018-01-30T07:11:59.092Z,14.48
2018-01-30T07:14:26.604Z,17.20
2018-01-30T07:16:54.308Z,17.70
2018-01-30T07:19:21.808Z,17.45
2018-01-30T07:21:49.325Z,19.17
2018-01-30T07:24:16.866Z,14.00
2018-01-30T07:26:44.371Z,20.35
2018-01-30T07:29:11.920Z,17.58
2018-01-30T07:31:39.430Z,19.40
2018-01-30T07:34:06.936Z,18.87
2018-01-30T07:36:34.489Z,19.20
2018-01-30T07:39:01.998Z,17.27
2018-01-30T07:41:29.555Z,19.12
2018-01-30T07:43:57.119Z,19.67
2018-01-30T07:46:24.629Z,17.70
2018-01-30T07:48:52.168Z,18.20
2018-01-30T07:51:19.677Z,20.42
2018-01-30T07:53:47.288Z,25.00
2018-01-30T07:56:14.800Z,17.30
2018-01-30T07:58:42.304Z,25.98
2018-01-30T08:01:09.838Z,22.00
2018-01-30T08:03:37.346Z,26.52
2018-01-30T08:06:05.180Z,19.70
2018-01-30T08:08:32.687Z,18.98
2018-01-30T08:11:00.485Z,21.98
2018-01-30T08:13:28.009Z,13.93
2018-01-30T08:15:55.533Z,19.10
2018-01-30T08:18:23.276Z,16.45
2018-01-30T08:20:50.780Z,18.20
2018-01-30T08:23:18.317Z,24.42
2018-01-30T08:25:46.016Z,19.70
2018-01-30T08:28:13.546Z,17.02
2018-01-30T08:30:41.224Z,19.90
2018-01-30T08:33:08.729Z,17.60
2018-01-30T08:35:36.231Z,13.38
2018-01-30T08:38:03.780Z,14.02
2018-01-30T08:40:31.296Z,20.83
2018-01-30T08:42:59.079Z,15.27
2018-01-30T08:45:26.589Z,14.48
2018-01-30T08:47:54.096Z,13.77
2018-01-30T08:50:21.637Z,18.40
2018-01-30T08:52:49.140Z,18.50
2018-01-30T08:55:16.677Z,14.18
2018-01-30T08:57:44.185Z,15.02
2018-01-30T09:00:11.720Z,19.25
2018-01-30T09:02:39.233Z,23.40
2018-01-30T09:05:06.770Z,16.92
2018-01-30T09:07:34.281Z,20.83
2018-01-30T09:10:01.812Z,23.70
2018-01-30T09:12:29.317Z,18.33
2018-01-30T09:14:57.883Z,16.80
2018-01-30T09:17:25.390Z,17.70
2018-01-30T09:19:52.900Z,19.00
2018-01-30T09:22:20.441Z,16.95
2018-01-30T09:24:47.956Z,18.42
2018-01-30T09:27:15.504Z,25.70
2018-01-30T09:29:43.009Z,23.73
2018-01-30T09:32:10.524Z,25.85
2018-01-30T09:34:38.099Z,27.30
2018-01-30T09:37:05.609Z,19.27
2018-01-30T09:39:33.148Z,17.15
2018-01-30T09:42:00.664Z,18.52
2018-01-30T09:44:28.172Z,24.30
2018-01-30T09:46:55.709Z,18.55
2018-01-30T09:49:23.236Z,22.85
2018-01-30T09:51:50.788Z,21.77
2018-01-30T09:54:18.313Z,17.67
2018-01-30T09:56:45.838Z,19.73
2018-01-30T09:59:13.389Z,20.73
2018-01-30T10:01:40.909Z,17.98
2018-01-30T10:04:08.601Z,21.12
2018-01-30T10:06:36.121Z,19.02
2018-01-30T10:09:03.641Z,16.05
2018-01-30T10:11:31.180Z,17.60
2018-01-30T10:13:58.698Z,13.73
2018-01-30T10:16:26.430Z,17.23
2018-01-30T10:18:53.937Z,13.07
2018-01-30T10:21:21.441Z,16.10
2018-01-30T10:23:48.973Z,20.70
2018-01-30T10:26:16.485Z,13.37
2018-01-30T10:28:44.041Z,12.20
2018-01-30T10:31:11.546Z,12.77
2018-01-30T10:33:39.054Z,11.10
2018-01-30T10:36:06.588Z,21.03
2018-01-30T10:38:34.104Z,14.27
2018-01-30T10:41:01.666Z,28.77
2018-01-30T10:43:30.114Z,28.07
2018-01-30T10:45:57.626Z,23.90
2018-01-30T10:48:25.165Z,28.37
2018-01-30T10:50:52.676Z,48.47
2018-01-30T10:53:21.172Z,21.67
2018-01-30T10:55:48.685Z,22.57
2018-01-30T10:58:16.189Z,31.13
2018-01-30T11:00:43.726Z,32.17
2018-01-30T11:03:11.236Z,25.07
2018-01-30T11:05:40.091Z,37.13
2018-01-30T11:08:07.610Z,56.28
2018-01-30T11:10:35.129Z,53.97
2018-01-30T11:13:02.681Z,48.85
2018-01-30T11:15:30.225Z,23.00
2018-01-30T11:17:57.961Z,17.37
2018-01-30T11:20:25.477Z,26.70
2018-01-30T11:22:52.995Z,19.15
2018-01-30T11:25:20.573Z,37.15
2018-01-30T11:27:48.090Z,34.03
2018-01-30T11:30:15.861Z,18.55
2018-01-30T11:32:43.376Z,24.65
2018-01-30T11:35:10.893Z,19.30
2018-01-30T11:37:38.679Z,16.45
2018-01-30T11:40:06.197Z,44.28
2018-01-30T11:42:33.745Z,14.85
2018-01-30T11:45:01.262Z,23.05
2018-01-30T11:47:28.776Z,15.82
2018-01-30T11:49:56.326Z,22.25
2018-01-30T11:52:23.842Z,32.70
2018-01-30T11:54:51.553Z,33.05
2018-01-30T11:57:19.077Z,24.65
2018-01-30T11:59:46.602Z,41.83
2018-01-30T12:02:14.145Z,23.70
2018-01-30T12:04:41.654Z,20.92
2018-01-30T12:07:09.400Z,16.90
2018-01-30T12:09:37.098Z,21.33
2018-01-30T12:12:04.630Z,21.35
2018-01-30T12:14:32.195Z,22.37
2018-01-30T12:16:59.711Z,19.67
2018-01-30T12:19:27.470Z,23.75
2018-01-30T12:21:54.989Z,29.60
2018-01-30T12:24:22.514Z,32.45
2018-01-30T12:26:50.061Z,24.55
2018-01-30T12:29:17.581Z,20.80
2018-01-30T12:31:45.144Z,22.35
2018-01-30T12:34:12.660Z,21.37
2018-01-30T12:36:40.172Z,31.60
2018-01-30T12:39:07.712Z,29.10
2018-01-30T12:41:35.221Z,24.37
2018-01-30T12:44:02.949Z,20.10
2018-01-30T12:46:30.522Z,31.10
2018-01-30T12:48:58.072Z,21.85
2018-01-30T12:51:25.614Z,22.35
2018-01-30T12:53:53.192Z,26.20
2018-01-30T12:56:20.776Z,30.77
2018-01-30T12:58:48.290Z,40.38
2018-01-30T13:01:16.707Z,44.60
2018-01-30T13:03:44.244Z,31.08
2018-01-30T13:06:11.765Z,25.92
2018-01-30T13:08:39.605Z,27.13
2018-01-30T13:11:07.197Z,24.63
2018-01-30T13:13:34.764Z,28.02
2018-01-30T13:16:02.300Z,22.67
2018-01-30T13:18:29.882Z,20.55
2018-01-30T13:20:57.453Z,21.23
2018-01-30T13:23:25.146Z,21.73
2018-01-30T13:25:53.607Z,19.23
2018-01-30T13:28:21.153Z,24.05
2018-01-30T13:30:48.668Z,25.70
2018-01-30T13:33:16.484Z,22.70
2018-01-30T13:35:44.001Z,36.83
2018-01-30T13:38:11.518Z,26.08
2018-01-30T13:40:39.093Z,31.92
2018-01-30T13:43:06.618Z,22.00
2018-01-30T13:45:34.181Z,25.00
2018-01-30T13:48:01.733Z,24.90
2018-01-30T13:50:29.265Z,35.70
2018-01-30T13:52:56.814Z,51.03
2018-01-30T13:55:24.366Z,27.42
2018-01-30T13:57:51.930Z,27.92
2018-01-30T14:00:19.452Z,28.23
2018-01-30T14:02:46.969Z,25.88
2018-01-30T14:05:14.528Z,22.83
2018-01-30T14:07:42.050Z,25.52
2018-01-30T14:10:09.621Z,29.00
2018-01-30T14:12:37.161Z,19.73
2018-01-30T14:15:04.685Z,43.42
2018-01-30T14:17:32.216Z,20.98
2018-01-30T14:19:59.803Z,28.95
2018-01-30T14:22:27.544Z,24.15
2018-01-30T14:24:55.041Z,26.85
2018-01-30T14:27:22.552Z,30.05
2018-01-30T14:29:50.092Z,23.38
2018-01-30T14:32:17.610Z,24.58
2018-01-30T14:34:46.137Z,26.62
2018-01-30T14:37:13.647Z,23.98
2018-01-30T14:39:41.177Z,34.53
2018-01-30T14:42:08.717Z,23.83
2018-01-30T14:44:36.238Z,22.35
2018-01-30T14:47:03.972Z,26.40
2018-01-30T14:49:31.486Z,24.75
2018-01-30T14:51:59.936Z,22.33
2018-01-30T14:54:27.477Z,16.30
2018-01-30T14:56:54.999Z,18.60
2018-01-30T14:59:22.564Z,15.55
2018-01-30T15:01:50.072Z,15.07
2018-01-30T15:04:17.582Z,13.55
2018-01-30T15:06:45.120Z,12.85
2018-01-30T15:09:12.633Z,18.98
2018-01-30T15:11:40.349Z,15.32
2018-01-30T15:14:07.873Z,12.77
2018-01-30T15:16:35.386Z,10.20
2018-01-30T15:19:02.921Z,14.02
2018-01-30T15:21:30.429Z,11.43
2018-01-30T15:23:58.237Z,11.52
2018-01-30T15:26:25.749Z,15.02
2018-01-30T15:28:53.289Z,11.02
2018-01-30T15:31:20.933Z,11.43
2018-01-30T15:33:48.442Z,10.07
2018-01-30T15:36:16.381Z,11.38
2018-01-30T15:38:43.957Z,11.65
2018-01-30T15:41:11.474Z,8.85
2018-01-30T15:43:39.968Z,9.27
2018-01-30T15:46:07.489Z,14.82
2018-01-30T15:48:35.216Z,15.27
2018-01-30T15:51:02.725Z,14.23
2018-01-30T15:53:30.461Z,15.27
2018-01-30T15:55:58.112Z,17.45
2018-01-30T15:58:25.776Z,19.30
2018-01-30T16:00:54.252Z,15.80
2018-01-30T16:03:21.765Z,16.42
2018-01-30T16:05:49.303Z,20.52
2018-01-30T16:08:16.930Z,17.85
2018-01-30T16:10:44.536Z,22.83
2018-01-30T16:13:12.329Z,16.25
2018-01-30T16:15:39.875Z,22.92
2018-01-30T16:18:08.193Z,118.00
2018-01-30T16:20:35.743Z,101.97
2018-01-30T16:23:03.781Z,174.05
2018-01-30T16:25:31.588Z,110.60
2018-01-30T16:28:00.068Z,33.42
2018-01-30T16:30:27.833Z,37.15
2018-01-30T16:32:55.540Z,29.55
2018-01-30T16:35:23.122Z,45.55
2018-01-30T16:37:50.889Z,49.53
2018-01-30T16:40:18.393Z,45.97
2018-01-30T16:42:46.162Z,40.30
2018-01-30T16:45:15.131Z,37.88
2018-01-30T16:47:42.817Z,34.60
2018-01-30T16:50:11.228Z,26.87
2018-01-30T16:52:39.548Z,34.22
2018-01-30T16:55:07.416Z,30.67
2018-01-30T16:57:35.260Z,28.73
2018-01-30T17:00:03.970Z,24.65
2018-01-30T17:02:31.816Z,22.95
2018-01-30T17:04:59.702Z,24.20
2018-01-30T17:07:27.216Z,16.73
2018-01-30T17:09:54.795Z,19.98
2018-01-30T17:12:22.309Z,15.93
2018-01-30T17:14:49.881Z,16.98
2018-01-30T17:17:17.394Z,24.48
2018-01-30T17:19:44.910Z,19.37
2018-01-30T17:22:12.614Z,20.20
2018-01-30T17:24:40.481Z,18.08
2018-01-30T17:27:08.450Z,24.92
2018-01-30T17:29:36.316Z,14.63
2018-01-30T17:32:03.958Z,19.73
2018-01-30T17:34:31.498Z,16.35
2018-01-30T17:36:59.029Z,15.90
2018-01-30T17:39:27.048Z,21.85
2018-01-30T17:41:54.983Z,24.08
2018-01-30T17:44:23.210Z,65.62
2018-01-30T17:46:50.756Z,318.75
2018-01-30T17:49:18.273Z,142.05
2018-01-30T17:51:45.821Z,47.53
2018-01-30T17:54:13.337Z,30.05
2018-01-30T17:56:40.857Z,24.73
2018-01-30T17:59:08.430Z,29.70
2018-01-30T18:01:36.024Z,37.80
2018-01-30T18:04:03.988Z,30.15
2018-01-30T18:06:31.537Z,22.52
2018-01-30T18:08:59.083Z,27.33
2018-01-30T18:11:26.768Z,25.65
2018-01-30T18:13:54.307Z,24.23
2018-01-30T18:16:22.194Z,23.85
2018-01-30T18:18:49.943Z,23.12
2018-01-30T18:21:17.825Z,24.85
2018-01-30T18:23:45.586Z,29.52
2018-01-30T18:26:13.457Z,30.40
2018-01-30T18:28:41.526Z,26.95
2018-01-30T18:31:09.904Z,21.02
2018-01-30T18:33:37.980Z,28.17
2018-01-30T18:36:06.832Z,23.05
2018-01-30T18:38:34.771Z,18.67
2018-01-30T18:41:03.008Z,22.23
2018-01-30T18:43:30.776Z,19.62
2018-01-30T18:45:58.640Z,21.15
2018-01-30T18:48:26.564Z,18.67
2018-01-30T18:50:54.951Z,20.65
2018-01-30T18:53:23.069Z,29.05
2018-01-30T18:55:50.923Z,23.23
2018-01-30T18:58:18.909Z,26.95
2018-01-30T19:00:47.271Z,20.92
2018-01-30T19:03:15.040Z,27.75
2018-01-30T19:05:50.199Z,20.35
2018-01-30T19:08:18.037Z,20.42
2018-01-30T19:10:46.340Z,22.23
2018-01-30T19:13:14.080Z,21.40
2018-01-30T19:15:41.787Z,19.00
2018-01-30T19:18:10.520Z,17.67
2018-01-30T19:20:38.401Z,19.87
2018-01-30T19:23:06.250Z,20.40
2018-01-30T19:25:34.022Z,24.80
2018-01-30T19:28:01.831Z,21.45
2018-01-30T19:30:29.608Z,17.70
2018-01-30T19:32:57.359Z,19.55
2018-01-30T19:35:25.284Z,23.92
2018-01-30T19:37:53.208Z,22.83
2018-01-30T19:40:21.023Z,24.87
2018-01-30T19:42:48.986Z,22.05
2018-01-30T19:45:16.852Z,23.35
2018-01-30T19:47:44.623Z,20.55
2018-01-30T19:50:12.481Z,26.92
2018-01-30T19:52:40.261Z,23.80
2018-01-30T19:55:08.334Z,20.37
2018-01-30T19:57:36.196Z,18.60
2018-01-30T20:00:04.044Z,29.25
2018-01-30T20:02:31.826Z,24.98
2018-01-30T20:05:00.498Z,20.02
2018-01-30T20:07:28.571Z,22.95
2018-01-30T20:09:56.335Z,19.83
2018-01-30T20:12:31.505Z,17.55
2018-01-30T20:15:00.474Z,20.75
2018-01-30T20:17:33.773Z,17.85
2018-01-30T20:20:01.625Z,18.77
2018-01-30T20:22:29.491Z,14.95
2018-01-30T20:24:57.419Z,15.05
2018-01-30T20:27:25.329Z,14.73
2018-01-30T20:29:53.398Z,10.02
2018-01-30T20:32:21.264Z,15.80
2018-01-30T20:34:49.779Z,19.80
2018-01-30T20:37:24.660Z,15.25
2018-01-30T20:39:52.511Z,14.23
2018-01-30T20:42:20.388Z,14.10
2018-01-30T20:44:48.184Z,14.57
2018-01-30T20:47:15.976Z,11.45
2018-01-30T20:49:44.009Z,12.65
2018-01-30T20:52:11.878Z,15.68
2018-01-30T20:54:39.701Z,11.98
2018-01-30T20:57:08.120Z,13.57
2018-01-30T20:59:36.806Z,11.85
2018-01-30T21:02:04.673Z,10.60
2018-01-30T21:04:32.952Z,12.10
2018-01-30T21:07:00.798Z,11.50
2018-01-30T21:09:28.682Z,8.45
2018-01-30T21:11:56.450Z,8.68
2018-01-30T21:14:24.211Z,8.75
2018-01-30T21:16:58.324Z,7.50
2018-01-30T21:19:26.084Z,7.93
2018-01-30T21:21:53.849Z,6.65
2018-01-30T21:24:25.608Z,10.05
2018-01-30T21:26:53.475Z,10.00
2018-01-30T21:29:21.443Z,7.50
2018-01-30T21:31:49.188Z,7.97
2018-01-30T21:34:17.020Z,7.70
2018-01-30T21:36:55.385Z,7.03
2018-01-30T21:39:23.250Z,5.87
2018-01-30T21:41:50.998Z,8.95
2018-01-30T21:44:18.884Z,8.77
2018-01-30T21:47:03.338Z,5.62
2018-01-30T21:49:31.048Z,7.00
2018-01-30T21:51:58.866Z,6.15
2018-01-30T21:54:26.730Z,5.90
2018-01-30T21:56:54.597Z,6.55
2018-01-30T21:59:22.424Z,6.40
2018-01-30T22:02:03.200Z,5.43
2018-01-30T22:04:31.201Z,5.03
2018-01-30T22:06:59.091Z,7.05
2018-01-30T22:09:26.693Z,4.45
2018-01-30T22:12:04.324Z,5.32
2018-01-30T22:14:31.882Z,6.28
2018-01-30T22:16:59.940Z,7.22
2018-01-30T22:19:27.612Z,5.90
2018-01-30T22:21:55.277Z,4.80
2018-01-30T22:24:28.761Z,4.57
2018-01-30T22:26:56.541Z,7.15
2018-01-30T22:29:24.306Z,7.90
2018-01-30T22:31:51.839Z,6.75
2018-01-30T22:34:19.487Z,7.60
2018-01-30T22:36:47.186Z,6.28
2018-01-30T22:39:14.701Z,9.48
2018-01-30T22:41:48.679Z,6.37
2018-01-30T22:44:16.328Z,5.75
2018-01-30T22:46:43.992Z,8.80
